createdAt,value
2019-01-13T00:02:20.724Z,97050.00
2019-01-13T00:07:27.299Z,97055.00
2019-01-13T00:12:35.653Z,97053.00
2019-01-13T00:17:41.017Z,97045.00
2019-01-13T00:22:46.754Z,97037.00
2019-01-13T00:27:56.087Z,97042.00
2019-01-13T00:33:02.450Z,97036.00
2019-01-13T00:38:08.652Z,97032.00
2019-01-13T00:43:15.333Z,97044.00
2019-01-13T00:48:21.978Z,97036.00
2019-01-13T00:53:27.881Z,97029.00
2019-01-13T00:58:34.387Z,97033.00
2019-01-13T01:03:40.989Z,97040.00
2019-01-13T01:08:46.565Z,97042.00
2019-01-13T01:13:57.026Z,97046.00
2019-01-13T01:19:03.297Z,97040.00
2019-01-13T01:24:22.876Z,97041.00
2019-01-13T01:29:29.599Z,97042.00
2019-01-13T01:34:36.077Z,97038.00
2019-01-13T01:39:41.761Z,97042.00
2019-01-13T01:44:47.455Z,97042.00
2019-01-13T01:49:53.107Z,97034.00
2019-01-13T01:54:59.350Z,97033.00
2019-01-13T02:00:16.506Z,97025.00
2019-01-13T02:05:25.627Z,97031.00
2019-01-13T02:10:32.293Z,97024.00
2019-01-13T02:15:38.934Z,97033.00
2019-01-13T02:20:44.653Z,97044.00
2019-01-13T02:25:50.413Z,97035.00
2019-01-13T02:30:57.041Z,97024.00
2019-01-13T02:36:03.569Z,97028.00
2019-01-13T02:41:09.354Z,97022.00
2019-01-13T02:46:13.939Z,97042.00
2019-01-13T02:51:19.471Z,97023.00
2019-01-13T02:56:25.985Z,97030.00
2019-01-13T03:01:32.222Z,97029.00
2019-01-13T03:06:38.460Z,97026.00
2019-01-13T03:11:43.955Z,97030.00
2019-01-13T03:16:50.319Z,97035.00
2019-01-13T03:21:56.964Z,97022.00
2019-01-13T03:27:03.782Z,97011.00
2019-01-13T03:32:10.089Z,97029.00
2019-01-13T03:37:16.565Z,97011.00
2019-01-13T03:42:22.541Z,97013.00
2019-01-13T03:47:28.654Z,97011.00
2019-01-13T03:52:35.375Z,97007.00
2019-01-13T03:57:41.244Z,97015.00
2019-01-13T04:02:46.555Z,97009.00
2019-01-13T04:07:52.696Z,96992.00
2019-01-13T04:12:59.233Z,96991.00
2019-01-13T04:18:05.440Z,96990.00
2019-01-13T04:23:11.528Z,96982.00
2019-01-13T04:28:17.648Z,96987.00
2019-01-13T04:33:23.962Z,96970.00
2019-01-13T04:38:33.125Z,96980.00
2019-01-13T04:43:39.418Z,96968.00
2019-01-13T04:48:46.410Z,96965.00
2019-01-13T04:53:52.699Z,96968.00
2019-01-13T04:59:02.125Z,96964.00
2019-01-13T05:04:08.616Z,96963.00
2019-01-13T05:09:15.053Z,96960.00
2019-01-13T05:14:21.937Z,96965.00
2019-01-13T05:19:28.366Z,96956.00
2019-01-13T05:24:34.788Z,96947.00
2019-01-13T05:29:41.008Z,96970.00
2019-01-13T05:34:46.678Z,96958.00
2019-01-13T05:39:52.619Z,96951.00
2019-01-13T05:44:58.770Z,96949.00
2019-01-13T05:50:10.595Z,96955.00
2019-01-13T05:55:16.715Z,96953.00
2019-01-13T06:00:25.032Z,96953.00
2019-01-13T06:05:31.529Z,96952.00
2019-01-13T06:10:37.972Z,96949.00
2019-01-13T06:15:43.387Z,96951.00
2019-01-13T06:20:49.073Z,96949.00
2019-01-13T06:25:54.827Z,96937.00
2019-01-13T06:31:00.824Z,96944.00
2019-01-13T06:36:06.839Z,96948.00
2019-01-13T06:41:12.794Z,96944.00
2019-01-13T06:46:18.798Z,96938.00
2019-01-13T06:51:24.965Z,96926.00
2019-01-13T06:56:30.932Z,96939.00
2019-01-13T07:01:37.086Z,96937.00
2019-01-13T07:06:42.736Z,96944.00
2019-01-13T07:11:48.138Z,96922.00
2019-01-13T07:16:54.230Z,96932.00
2019-01-13T07:22:01.367Z,96912.00
2019-01-13T07:27:08.894Z,96903.00
2019-01-13T07:32:15.248Z,96894.00
2019-01-13T07:37:21.699Z,96901.00
2019-01-13T07:42:27.955Z,96906.00
2019-01-13T07:47:34.483Z,96896.00
2019-01-13T07:52:40.424Z,96888.00
2019-01-13T07:57:46.024Z,96867.00
2019-01-13T08:02:51.656Z,96875.00
2019-01-13T08:07:57.973Z,96874.00
2019-01-13T08:13:04.185Z,96866.00
2019-01-13T08:18:10.815Z,96840.00
2019-01-13T08:23:17.519Z,96843.00
2019-01-13T08:28:24.231Z,96843.00
2019-01-13T08:33:30.649Z,96846.00
2019-01-13T08:38:36.887Z,96830.00
2019-01-13T08:43:42.606Z,96826.00
2019-01-13T08:48:48.956Z,96828.00
2019-01-13T08:53:55.416Z,96805.00
2019-01-13T08:59:03.078Z,96803.00
2019-01-13T09:04:09.572Z,96794.00
2019-01-13T09:09:20.347Z,96764.00
2019-01-13T09:14:26.963Z,96769.00
2019-01-13T09:19:33.479Z,96768.00
2019-01-13T09:24:40.627Z,96747.00
2019-01-13T09:29:46.388Z,96741.00
2019-01-13T09:34:53.130Z,96727.00
2019-01-13T09:39:59.605Z,96719.00
2019-01-13T09:45:10.080Z,96718.00
2019-01-13T09:50:25.194Z,96706.00
2019-01-13T09:55:31.952Z,96701.00
2019-01-13T10:00:38.520Z,96697.00
2019-01-13T10:05:44.099Z,96687.00
2019-01-13T10:10:50.978Z,96664.00
2019-01-13T10:15:57.498Z,96656.00
2019-01-13T10:21:03.707Z,96643.00
2019-01-13T10:26:09.812Z,96640.00
2019-01-13T10:31:17.043Z,96617.00
2019-01-13T10:36:25.178Z,96609.00
2019-01-13T10:41:31.512Z,96581.00
2019-01-13T10:46:38.044Z,96565.00
2019-01-13T10:51:43.719Z,96553.00
2019-01-13T10:56:49.971Z,96544.00
2019-01-13T11:01:56.056Z,96524.00
2019-01-13T11:07:02.618Z,96497.00
2019-01-13T11:12:09.079Z,96480.00
2019-01-13T11:17:15.603Z,96467.00
2019-01-13T11:22:22.079Z,96454.00
2019-01-13T11:27:28.601Z,96431.00
2019-01-13T11:32:35.217Z,96427.00
2019-01-13T11:37:42.972Z,96410.00
2019-01-13T11:42:49.763Z,96406.00
2019-01-13T11:47:56.250Z,96372.00
2019-01-13T11:53:04.183Z,96374.00
2019-01-13T11:58:10.893Z,96361.00
2019-01-13T12:03:17.637Z,96341.00
2019-01-13T12:08:24.061Z,96334.00
2019-01-13T12:13:30.798Z,96317.00
2019-01-13T12:18:40.631Z,96305.00
2019-01-13T12:23:44.327Z,96291.00
2019-01-13T12:28:53.278Z,96270.00
2019-01-13T12:33:59.987Z,96261.00
2019-01-13T12:39:09.716Z,96245.00
2019-01-13T12:44:17.316Z,96220.00
2019-01-13T12:49:24.536Z,96208.00
2019-01-13T12:54:31.617Z,96186.00
2019-01-13T12:59:37.838Z,96169.00
2019-01-13T13:04:43.640Z,96174.00
2019-01-13T13:09:51.113Z,96143.00
2019-01-13T13:14:57.803Z,96139.00
2019-01-13T13:20:06.219Z,96137.00
2019-01-13T13:25:14.082Z,96121.00
2019-01-13T13:30:28.270Z,96117.00
2019-01-13T13:35:39.716Z,96088.00
2019-01-13T13:40:42.214Z,96096.00
2019-01-13T13:45:47.854Z,96071.00
2019-01-13T13:50:54.192Z,96059.00
2019-01-13T13:56:00.910Z,96077.00
2019-01-13T14:01:08.178Z,96060.00
2019-01-13T14:06:14.617Z,96034.00
2019-01-13T14:11:21.725Z,96046.00
2019-01-13T14:16:30.170Z,96027.00
2019-01-13T14:21:37.956Z,96040.00
2019-01-13T14:26:45.464Z,96042.00
2019-01-13T14:31:52.326Z,96030.00
2019-01-13T14:37:00.363Z,96019.00
2019-01-13T14:42:06.852Z,96011.00
2019-01-13T14:47:13.024Z,95988.00
2019-01-13T14:52:38.084Z,95986.00
2019-01-13T14:57:43.747Z,95978.00
2019-01-13T15:02:50.931Z,95963.00
2019-01-13T15:07:57.511Z,95959.00
2019-01-13T15:13:03.268Z,95970.00
2019-01-13T15:18:09.095Z,95943.00
2019-01-13T15:23:15.092Z,95957.00
2019-01-13T15:28:21.705Z,95952.00
2019-01-13T15:33:28.901Z,95962.00
2019-01-13T15:38:34.567Z,95942.00
2019-01-13T15:43:40.402Z,95926.00
2019-01-13T15:48:46.136Z,95939.00
2019-01-13T15:53:54.391Z,95910.00
2019-01-13T15:59:01.331Z,95916.00
2019-01-13T16:04:14.307Z,95915.00
2019-01-13T16:09:15.758Z,95907.00
2019-01-13T16:14:22.996Z,95904.00
2019-01-13T16:19:30.558Z,95894.00
2019-01-13T16:24:37.245Z,95878.00
2019-01-13T16:29:43.071Z,95866.00
2019-01-13T16:34:49.883Z,95865.00
2019-01-13T16:39:56.390Z,95861.00
2019-01-13T16:45:02.134Z,95851.00
2019-01-13T16:50:12.598Z,95836.00
2019-01-13T16:55:19.487Z,95830.00
2019-01-13T17:00:29.962Z,95812.00
2019-01-13T17:05:37.211Z,95797.00
2019-01-13T17:10:42.867Z,95787.00
2019-01-13T17:15:48.717Z,95780.00
2019-01-13T17:20:55.353Z,95766.00
2019-01-13T17:26:02.464Z,95744.00
2019-01-13T17:31:09.150Z,95737.00
2019-01-13T17:36:15.796Z,95733.00
2019-01-13T17:41:23.000Z,95726.00
2019-01-13T17:46:28.822Z,95729.00
2019-01-13T17:51:35.853Z,95711.00
2019-01-13T17:56:41.638Z,95705.00
2019-01-13T18:01:48.351Z,95678.00
2019-01-13T18:06:54.464Z,95676.00
2019-01-13T18:12:00.139Z,95694.00
2019-01-13T18:17:06.611Z,95682.00
2019-01-13T18:22:14.724Z,95667.00
2019-01-13T18:27:21.243Z,95667.00
2019-01-13T18:32:27.414Z,95662.00
2019-01-13T18:37:35.238Z,95650.00
2019-01-13T18:42:40.976Z,95661.00
2019-01-13T18:47:46.747Z,95644.00
2019-01-13T18:53:07.302Z,95627.00
2019-01-13T18:58:13.979Z,95644.00
2019-01-13T19:03:20.239Z,95634.00
2019-01-13T19:08:27.000Z,95619.00
2019-01-13T19:13:52.259Z,95620.00
2019-01-13T19:19:01.118Z,95614.00
2019-01-13T19:24:08.724Z,95635.00
2019-01-13T19:29:14.457Z,95624.00
2019-01-13T19:34:20.097Z,95618.00
2019-01-13T19:39:29.754Z,95608.00
2019-01-13T19:44:36.365Z,95612.00
2019-01-13T19:49:42.215Z,95584.00
2019-01-13T19:54:48.041Z,95583.00
2019-01-13T19:59:54.416Z,95579.00
2019-01-13T20:05:01.812Z,95706.00
2019-01-13T20:10:12.796Z,95687.00
2019-01-13T20:15:21.102Z,95677.00
2019-01-13T20:20:26.787Z,95691.00
2019-01-13T20:25:34.282Z,95701.00
2019-01-13T20:30:40.925Z,95689.00
2019-01-13T20:35:46.624Z,95698.00
2019-01-13T20:40:53.062Z,95663.00
2019-01-13T20:45:59.760Z,95701.00
2019-01-13T20:51:06.950Z,95689.00
2019-01-13T20:56:12.570Z,95701.00
2019-01-13T21:01:20.822Z,95699.00
2019-01-13T21:06:27.614Z,95709.00
2019-01-13T21:11:34.716Z,95702.00
2019-01-13T21:16:41.185Z,95705.00
2019-01-13T21:21:47.896Z,95710.00
2019-01-13T21:26:53.801Z,95702.00
2019-01-13T21:31:59.413Z,95700.00
2019-01-13T21:37:06.283Z,95708.00
2019-01-13T21:42:12.840Z,95707.00
2019-01-13T21:47:19.703Z,95702.00
2019-01-13T21:52:25.352Z,95702.00
2019-01-13T21:57:33.443Z,95697.00
2019-01-13T22:02:39.926Z,95683.00
2019-01-13T22:07:45.619Z,95696.00
2019-01-13T22:12:51.055Z,95688.00
2019-01-13T22:17:57.343Z,95707.00
2019-01-13T22:23:03.631Z,95706.00
2019-01-13T22:28:10.643Z,95721.00
2019-01-13T22:33:17.923Z,95719.00
2019-01-13T22:38:23.261Z,95706.00
2019-01-13T22:43:29.610Z,95720.00
2019-01-13T22:48:35.985Z,95714.00
2019-01-13T22:53:41.398Z,95716.00
2019-01-13T22:58:47.789Z,95728.00
2019-01-13T23:03:54.566Z,95728.00
2019-01-13T23:09:00.898Z,95738.00
2019-01-13T23:14:08.609Z,95722.00
2019-01-13T23:19:17.202Z,95730.00
2019-01-13T23:24:23.041Z,95739.00
2019-01-13T23:29:31.058Z,95747.00
2019-01-13T23:34:37.038Z,95748.00
2019-01-13T23:39:42.568Z,95758.00
2019-01-13T23:44:48.705Z,95748.00
2019-01-13T23:50:13.582Z,95758.00
2019-01-13T23:55:19.971Z,95771.00
